createdAt,value
2022-10-11T00:00:37.519Z,7.13
2022-10-11T00:03:39.732Z,7.05
2022-10-11T00:06:43.751Z,6.55
2022-10-11T00:09:46.610Z,7.25
2022-10-11T00:12:54.710Z,6.50
2022-10-11T00:15:57.781Z,7.28
2022-10-11T00:18:59.926Z,6.68
2022-10-11T00:22:02.142Z,7.60
2022-10-11T00:25:06.469Z,7.53
2022-10-11T00:28:08.819Z,7.93
2022-10-11T00:31:13.631Z,8.25
2022-10-11T00:34:18.181Z,7.13
2022-10-11T00:37:20.930Z,7.88
2022-10-11T00:40:23.249Z,7.55
2022-10-11T00:43:27.367Z,8.85
2022-10-11T00:46:31.699Z,7.13
2022-10-11T00:49:56.655Z,7.57
2022-10-11T00:53:03.283Z,7.38
2022-10-11T00:56:13.126Z,8.88
2022-10-11T00:59:21.590Z,7.43
2022-10-11T01:02:24.448Z,8.30
2022-10-11T01:05:29.757Z,8.43
2022-10-11T01:08:32.748Z,9.15
2022-10-11T01:11:38.376Z,8.75
2022-10-11T01:14:49.710Z,9.00
2022-10-11T01:18:25.950Z,8.10
2022-10-11T01:21:50.991Z,8.43
2022-10-11T01:24:53.098Z,7.97
2022-10-11T01:28:04.441Z,9.30
2022-10-11T01:31:46.111Z,8.52
2022-10-11T01:35:00.677Z,8.15
2022-10-11T01:38:35.134Z,7.45
2022-10-11T01:41:51.285Z,7.63
2022-10-11T01:45:05.878Z,7.88
2022-10-11T01:48:18.488Z,7.95
2022-10-11T01:51:34.837Z,8.38
2022-10-11T01:55:09.639Z,8.25
2022-10-11T01:58:34.499Z,8.38
2022-10-11T02:02:00.476Z,9.25
2022-10-11T02:05:37.542Z,8.55
2022-10-11T02:08:54.719Z,8.73
2022-10-11T02:12:12.354Z,9.10
2022-10-11T02:15:29.146Z,8.52
2022-10-11T02:18:49.739Z,8.52
2022-10-11T02:22:08.295Z,8.68
2022-10-11T02:25:26.620Z,8.02
2022-10-11T02:28:41.691Z,8.40
2022-10-11T02:31:55.773Z,8.65
2022-10-11T02:35:09.749Z,9.10
2022-10-11T02:38:38.530Z,8.23
2022-10-11T02:41:53.277Z,8.88
2022-10-11T02:45:19.016Z,8.07
2022-10-11T02:48:33.609Z,8.63
2022-10-11T02:51:45.960Z,8.27
2022-10-11T02:54:58.323Z,7.85
2022-10-11T02:58:10.749Z,8.32
2022-10-11T03:01:23.297Z,8.40
2022-10-11T03:04:35.733Z,9.82
2022-10-11T03:07:48.147Z,8.65
2022-10-11T03:11:00.544Z,8.60
2022-10-11T03:14:12.862Z,8.27
2022-10-11T03:17:36.238Z,8.25
2022-10-11T03:20:49.479Z,8.40
2022-10-11T03:24:01.922Z,8.30
2022-10-11T03:27:14.353Z,8.93
2022-10-11T03:30:26.813Z,9.02
2022-10-11T03:33:39.261Z,8.57
2022-10-11T03:36:51.707Z,8.70
2022-10-11T03:40:06.404Z,8.88
2022-10-11T03:43:18.857Z,9.10
2022-10-11T03:46:31.617Z,8.02
2022-10-11T03:49:44.023Z,8.57
2022-10-11T03:52:56.467Z,8.93
2022-10-11T03:56:09.081Z,8.90
2022-10-11T03:59:21.755Z,8.90
2022-10-11T04:02:38.947Z,9.05
2022-10-11T04:05:51.801Z,8.93
2022-10-11T04:09:16.308Z,8.63
2022-10-11T04:12:28.977Z,8.52
2022-10-11T04:15:41.732Z,8.40
2022-10-11T04:18:54.255Z,8.60
2022-10-11T04:22:07.269Z,9.60
2022-10-11T04:25:19.645Z,8.32
2022-10-11T04:28:32.304Z,8.98
2022-10-11T04:31:44.904Z,9.02
2022-10-11T04:34:57.364Z,8.88
2022-10-11T04:38:10.024Z,9.25
2022-10-11T04:41:22.722Z,8.32
2022-10-11T04:44:35.239Z,7.78
2022-10-11T04:47:48.489Z,8.48
2022-10-11T04:51:00.943Z,8.27
2022-10-11T04:54:13.492Z,7.60
2022-10-11T04:57:25.937Z,8.40
2022-10-11T05:00:38.351Z,7.72
2022-10-11T05:03:50.740Z,7.38
2022-10-11T05:07:03.209Z,7.40
2022-10-11T05:10:15.826Z,7.88
2022-10-11T05:13:29.530Z,7.22
2022-10-11T05:16:41.915Z,7.55
2022-10-11T05:19:54.269Z,7.38
2022-10-11T05:23:06.741Z,7.25
2022-10-11T05:26:20.877Z,8.35
2022-10-11T05:29:33.225Z,7.63
2022-10-11T05:32:45.597Z,7.78
2022-10-11T05:35:58.160Z,8.13
2022-10-11T05:39:10.669Z,7.50
2022-10-11T05:42:23.327Z,7.88
2022-10-11T05:45:39.760Z,7.50
2022-10-11T05:48:52.123Z,7.65
2022-10-11T05:52:06.750Z,7.18
2022-10-11T05:55:19.400Z,7.43
2022-10-11T05:58:31.907Z,8.20
2022-10-11T06:01:44.403Z,7.85
2022-10-11T06:04:56.953Z,7.28
2022-10-11T06:08:11.228Z,6.88
2022-10-11T06:11:28.096Z,7.20
2022-10-11T06:14:40.566Z,7.22
2022-10-11T06:17:53.255Z,7.22
2022-10-11T06:21:05.909Z,6.80
2022-10-11T06:24:18.336Z,7.10
2022-10-11T06:27:30.752Z,6.88
2022-10-11T06:30:43.263Z,7.50
2022-10-11T06:33:55.664Z,7.00
2022-10-11T06:37:08.331Z,6.60
2022-10-11T06:40:20.682Z,6.47
2022-10-11T06:43:33.145Z,6.70
2022-10-11T06:46:45.499Z,6.68
2022-10-11T06:49:58.110Z,6.68
2022-10-11T06:53:10.786Z,5.68
2022-10-11T06:56:23.944Z,6.20
2022-10-11T06:59:36.357Z,4.38
2022-10-11T07:02:49.918Z,5.57
2022-10-11T07:06:08.201Z,6.60
2022-10-11T07:09:20.890Z,6.93
2022-10-11T07:12:33.493Z,5.65
2022-10-11T07:15:45.909Z,5.13
2022-10-11T07:19:00.880Z,5.68
2022-10-11T07:22:13.699Z,4.57
2022-10-11T07:25:26.108Z,5.80
2022-10-11T07:28:39.955Z,5.60
2022-10-11T07:31:52.492Z,5.90
2022-10-11T07:35:05.445Z,5.95
2022-10-11T07:38:18.058Z,5.68
2022-10-11T07:41:30.557Z,5.47
2022-10-11T07:44:43.056Z,6.20
2022-10-11T07:47:57.156Z,4.45
2022-10-11T07:51:16.655Z,4.30
2022-10-11T07:54:29.144Z,4.63
2022-10-11T07:57:41.516Z,5.25
2022-10-11T08:00:54.746Z,5.55
2022-10-11T08:04:07.302Z,5.88
2022-10-11T08:07:19.684Z,5.78
2022-10-11T08:10:38.321Z,5.75
2022-10-11T08:13:51.091Z,5.55
2022-10-11T08:17:03.580Z,6.00
2022-10-11T08:20:16.247Z,5.45
2022-10-11T08:23:28.801Z,4.97
2022-10-11T08:26:41.484Z,6.22
2022-10-11T08:29:53.927Z,6.57
2022-10-11T08:33:08.686Z,5.63
2022-10-11T08:36:21.350Z,5.30
2022-10-11T08:39:33.745Z,4.43
2022-10-11T08:42:50.154Z,3.80
2022-10-11T08:46:05.803Z,4.75
2022-10-11T08:49:28.756Z,4.15
2022-10-11T08:53:24.210Z,4.40
2022-10-11T08:56:40.224Z,4.05
2022-10-11T08:59:59.586Z,4.20
2022-10-11T09:03:20.925Z,5.07
2022-10-11T09:07:00.224Z,4.50
2022-10-11T09:10:43.398Z,4.47
2022-10-11T09:14:03.368Z,5.03
2022-10-11T09:17:31.395Z,4.10
2022-10-11T09:20:53.745Z,5.38
2022-10-11T09:23:55.889Z,4.50
2022-10-11T09:27:18.576Z,4.38
2022-10-11T09:30:21.117Z,4.30
2022-10-11T09:33:35.518Z,4.40
2022-10-11T09:36:43.726Z,4.50
2022-10-11T09:39:52.417Z,4.68
2022-10-11T09:42:54.701Z,4.35
2022-10-11T09:45:56.990Z,4.93
2022-10-11T09:49:03.397Z,4.28
2022-10-11T09:52:14.306Z,4.80
2022-10-11T09:55:44.392Z,4.78
2022-10-11T10:01:49.199Z,4.50
2022-10-11T10:05:09.197Z,5.07
2022-10-11T10:08:23.532Z,3.40
2022-10-11T10:11:25.745Z,4.63
2022-10-11T10:14:30.343Z,4.30
2022-10-11T10:17:33.321Z,5.03
2022-10-11T10:20:36.303Z,4.53
2022-10-11T10:23:38.780Z,5.30
2022-10-11T10:26:40.973Z,5.22
2022-10-11T10:29:44.817Z,4.95
2022-10-11T10:33:00.002Z,4.28
2022-10-11T10:36:12.736Z,4.93
2022-10-11T10:39:24.796Z,4.30
2022-10-11T10:42:27.623Z,4.97
2022-10-11T10:45:42.762Z,4.75
2022-10-11T10:52:31.258Z,5.32
2022-10-11T10:55:41.917Z,4.28
2022-10-11T10:59:25.323Z,5.60
2022-10-11T11:02:40.856Z,5.10
2022-10-11T11:06:03.494Z,6.05
2022-10-11T11:09:14.700Z,5.70
2022-10-11T11:12:45.859Z,5.82
2022-10-11T11:16:11.627Z,5.65
2022-10-11T11:19:39.805Z,5.35
2022-10-11T11:23:27.299Z,6.82
2022-10-11T11:26:44.470Z,7.22
2022-10-11T11:29:59.331Z,7.07
2022-10-11T11:33:04.419Z,5.22
2022-10-11T11:36:18.454Z,7.05
2022-10-11T11:39:24.825Z,6.90
2022-10-11T11:42:48.222Z,7.18
2022-10-11T11:45:58.097Z,6.63
2022-10-11T11:49:12.091Z,6.00
2022-10-11T11:52:44.233Z,6.13
2022-10-11T11:55:53.409Z,7.80
2022-10-11T11:59:05.768Z,8.40
2022-10-11T12:02:38.047Z,6.35
2022-10-11T12:06:12.161Z,6.15
2022-10-11T12:09:17.050Z,5.97
2022-10-11T12:12:35.571Z,6.32
2022-10-11T12:28:39.517Z,7.35
2022-10-11T12:31:47.765Z,8.88
2022-10-11T12:34:49.960Z,7.75
2022-10-11T12:37:52.557Z,8.32
2022-10-11T12:41:16.990Z,7.78
2022-10-11T12:44:19.127Z,9.13
2022-10-11T12:47:42.859Z,7.88
2022-10-11T12:50:58.528Z,7.88
2022-10-11T12:54:28.233Z,7.72
2022-10-11T12:57:54.472Z,8.05
2022-10-11T13:00:57.115Z,8.00
2022-10-11T13:04:03.627Z,6.90
2022-10-11T13:07:15.560Z,7.72
2022-10-11T13:10:24.444Z,8.23
2022-10-11T13:13:34.530Z,8.43
2022-10-11T13:19:58.575Z,7.15
2022-10-11T13:23:01.163Z,7.63
2022-10-11T13:26:04.129Z,7.70
2022-10-11T13:29:17.006Z,8.18
2022-10-11T13:32:25.003Z,8.77
2022-10-11T13:35:34.466Z,9.52
2022-10-11T13:38:37.414Z,9.00
2022-10-11T13:41:39.588Z,8.45
2022-10-11T13:44:43.937Z,8.57
2022-10-11T13:47:47.227Z,10.50
2022-10-11T13:51:13.606Z,8.65
2022-10-11T13:54:15.709Z,9.73
2022-10-11T13:57:17.822Z,7.07
2022-10-11T14:00:34.993Z,8.13
2022-10-11T14:03:46.128Z,9.35
2022-10-11T14:07:02.532Z,8.85
2022-10-11T14:10:06.322Z,6.95
2022-10-11T14:13:29.522Z,8.45
2022-10-11T14:16:31.848Z,8.10
2022-10-11T14:19:34.399Z,7.97
2022-10-11T14:22:36.573Z,8.13
2022-10-11T14:25:38.711Z,8.57
2022-10-11T14:28:41.171Z,8.55
2022-10-11T14:31:43.693Z,8.60
2022-10-11T14:34:47.488Z,8.40
2022-10-11T14:37:50.027Z,8.90
2022-10-11T14:40:52.479Z,8.52
2022-10-11T14:43:56.549Z,8.95
2022-10-11T14:46:59.720Z,8.90
2022-10-11T14:50:14.225Z,8.57
2022-10-11T14:53:16.683Z,8.20
2022-10-11T14:56:21.439Z,7.38
2022-10-11T14:59:26.994Z,8.80
2022-10-11T15:02:29.101Z,10.93
2022-10-11T15:05:34.263Z,9.60
2022-10-11T15:08:36.598Z,9.30
2022-10-11T15:11:39.169Z,9.05
2022-10-11T15:14:41.286Z,8.18
2022-10-11T15:17:43.472Z,8.07
2022-10-11T15:20:46.661Z,8.90
2022-10-11T15:23:50.107Z,8.65
2022-10-11T15:26:52.191Z,8.65
2022-10-11T15:29:54.334Z,8.75
2022-10-11T15:32:56.553Z,11.27
2022-10-11T15:35:58.659Z,11.80
2022-10-11T15:39:01.861Z,8.88
2022-10-11T15:42:04.065Z,11.38
2022-10-11T15:45:06.389Z,10.88
2022-10-11T15:48:11.617Z,10.05
2022-10-11T15:51:13.744Z,9.73
2022-10-11T15:54:15.888Z,7.90
2022-10-11T15:57:18.393Z,9.15
2022-10-11T16:00:22.324Z,9.30
2022-10-11T16:03:27.613Z,9.60
2022-10-11T16:06:30.645Z,7.95
2022-10-11T16:09:33.036Z,9.05
2022-10-11T16:12:39.239Z,8.35
2022-10-11T16:15:43.006Z,8.55
2022-10-11T16:18:45.197Z,7.45
2022-10-11T16:21:47.467Z,7.25
2022-10-11T16:24:49.728Z,8.00
2022-10-11T16:27:52.417Z,7.65
2022-10-11T16:31:02.785Z,7.80
2022-10-11T16:34:05.004Z,8.52
2022-10-11T16:37:07.160Z,7.55
2022-10-11T16:40:12.068Z,8.90
2022-10-11T16:43:14.361Z,7.95
2022-10-11T16:46:16.559Z,8.82
2022-10-11T16:49:22.602Z,8.90
2022-10-11T16:52:25.292Z,8.38
2022-10-11T16:55:27.462Z,8.02
2022-10-11T16:58:29.626Z,7.90
2022-10-11T17:01:31.802Z,7.50
2022-10-11T17:04:34.090Z,7.68
2022-10-11T17:07:36.344Z,6.97
2022-10-11T17:10:44.404Z,7.20
2022-10-11T17:13:46.652Z,6.65
2022-10-11T17:16:49.020Z,8.25
2022-10-11T17:19:51.464Z,7.40
2022-10-11T17:22:54.128Z,8.27
2022-10-11T17:25:56.375Z,6.82
2022-10-11T17:29:00.529Z,6.88
2022-10-11T17:32:03.340Z,7.05
2022-10-11T17:35:05.842Z,6.93
2022-10-11T17:38:07.900Z,7.07
2022-10-11T17:41:10.849Z,7.32
2022-10-11T17:44:13.627Z,6.60
2022-10-11T17:47:15.993Z,7.07
2022-10-11T17:50:18.192Z,8.60
2022-10-11T17:53:21.508Z,9.57
2022-10-11T17:56:29.602Z,12.10
2022-10-11T18:02:35.817Z,10.00
2022-10-11T18:05:41.939Z,10.90
2022-10-11T18:08:44.032Z,9.55
2022-10-11T18:11:46.831Z,10.70
2022-10-11T18:14:51.101Z,9.63
2022-10-11T18:17:53.193Z,10.02
2022-10-11T18:20:55.290Z,10.15
2022-10-11T18:24:02.184Z,10.50
2022-10-11T18:27:04.297Z,9.73
2022-10-11T18:30:07.356Z,10.93
2022-10-11T18:33:09.783Z,9.65
2022-10-11T18:36:16.658Z,9.23
2022-10-11T18:39:20.831Z,10.02
2022-10-11T18:42:22.951Z,10.07
2022-10-11T18:45:25.200Z,9.90
2022-10-11T18:48:27.382Z,9.25
2022-10-11T18:51:35.323Z,9.13
2022-10-11T18:54:37.472Z,9.07
2022-10-11T18:57:39.682Z,10.77
2022-10-11T19:00:41.977Z,10.55
2022-10-11T19:03:46.341Z,10.20
2022-10-11T19:06:49.218Z,9.30
2022-10-11T19:09:51.514Z,11.07
2022-10-11T19:12:53.691Z,10.82
2022-10-11T19:15:55.890Z,10.70
2022-10-11T19:18:58.632Z,10.00
2022-10-11T19:22:03.461Z,10.02
2022-10-11T19:25:06.354Z,8.60
2022-10-11T19:28:13.551Z,10.15
2022-10-11T19:31:17.932Z,11.27
2022-10-11T19:34:21.156Z,9.32
2022-10-11T19:37:23.444Z,9.85
2022-10-11T19:40:27.214Z,10.63
2022-10-11T19:43:32.121Z,11.90
2022-10-11T19:49:56.456Z,10.27
2022-10-11T19:52:58.687Z,11.10
2022-10-11T19:56:07.357Z,10.38
2022-10-11T19:59:11.171Z,10.15
2022-10-11T20:02:14.800Z,10.35
2022-10-11T20:05:17.059Z,10.70
2022-10-11T20:08:19.269Z,12.00
2022-10-11T20:11:21.987Z,11.13
2022-10-11T20:14:24.367Z,11.35
2022-10-11T20:17:47.878Z,10.98
2022-10-11T20:20:54.883Z,10.43
2022-10-11T20:24:00.005Z,9.82
2022-10-11T20:27:05.907Z,10.90
2022-10-11T20:30:08.480Z,11.45
2022-10-11T20:33:10.980Z,10.85
2022-10-11T20:36:16.212Z,9.88
2022-10-11T20:39:18.452Z,9.93
2022-10-11T20:42:20.571Z,10.07
2022-10-11T20:45:22.725Z,11.27
2022-10-11T20:48:24.849Z,10.50
2022-10-11T20:51:27.530Z,9.65
2022-10-11T20:54:30.684Z,9.50
2022-10-11T20:57:33.267Z,10.15
2022-10-11T21:00:35.697Z,9.65
2022-10-11T21:03:38.926Z,9.43
2022-10-11T21:06:41.144Z,8.88
2022-10-11T21:09:43.237Z,10.55
2022-10-11T21:12:45.345Z,8.82
2022-10-11T21:15:47.892Z,11.48
2022-10-11T21:18:55.284Z,9.25
2022-10-11T21:21:57.978Z,10.80
2022-10-11T21:25:00.232Z,9.75
2022-10-11T21:28:03.118Z,10.45
2022-10-11T21:31:16.387Z,11.15
2022-10-11T21:34:18.677Z,9.85
2022-10-11T21:37:21.555Z,9.75
2022-10-11T21:40:23.791Z,11.38
2022-10-11T21:43:25.910Z,9.80
2022-10-11T21:47:01.172Z,9.02
2022-10-11T21:49:52.800Z,9.25
2022-10-11T21:52:55.033Z,9.05
2022-10-11T21:55:58.707Z,11.52
2022-10-11T21:59:00.954Z,8.73
2022-10-11T22:02:03.143Z,9.95
2022-10-11T22:05:05.650Z,10.63
2022-10-11T22:08:07.727Z,9.13
2022-10-11T22:11:10.579Z,10.20
2022-10-11T22:14:12.865Z,8.13
2022-10-11T22:17:15.123Z,8.48
2022-10-11T22:20:17.533Z,9.90
2022-10-11T22:23:20.002Z,9.80
2022-10-11T22:26:25.702Z,10.02
2022-10-11T22:29:33.179Z,9.73
2022-10-11T22:32:36.690Z,9.00
2022-10-11T22:35:39.150Z,11.45
2022-10-11T22:38:43.172Z,9.73
2022-10-11T22:41:45.311Z,7.93
2022-10-11T22:44:47.444Z,8.50
2022-10-11T22:47:49.797Z,10.00
2022-10-11T22:50:52.208Z,8.02
2022-10-11T22:53:54.398Z,7.82
2022-10-11T22:56:56.670Z,8.75
2022-10-11T22:59:58.804Z,7.22
2022-10-11T23:03:00.968Z,10.35
2022-10-11T23:06:03.325Z,11.10
2022-10-11T23:09:05.732Z,7.97
2022-10-11T23:12:08.156Z,9.13
2022-10-11T23:15:11.511Z,9.98
2022-10-11T23:18:15.289Z,8.93
2022-10-11T23:21:17.371Z,9.43
2022-10-11T23:24:19.520Z,9.45
2022-10-11T23:27:21.882Z,9.45
2022-10-11T23:30:24.018Z,8.15
2022-10-11T23:33:28.982Z,10.45
2022-10-11T23:36:31.137Z,9.50
2022-10-11T23:39:33.310Z,7.93
2022-10-11T23:42:35.401Z,10.00
2022-10-11T23:45:37.708Z,8.20
2022-10-11T23:48:39.893Z,10.18
2022-10-11T23:51:42.161Z,10.80
2022-10-11T23:54:44.299Z,10.63
2022-10-11T23:57:46.453Z,10.10
